sensor_id;sensor_type;location;lat;lon;timestamp;P1;durP1;ratioP1;P2;durP2;ratioP2
62696;SDS011;48761;42.680;23.312;2023-01-16T00:02:14;54.67;;;30.63;;
62696;SDS011;48761;42.680;23.312;2023-01-16T00:04:40;54.63;;;31.80;;
62696;SDS011;48761;42.680;23.312;2023-01-16T00:07:06;52.95;;;30.42;;
62696;SDS011;48761;42.680;23.312;2023-01-16T00:09:32;57.08;;;32.88;;
62696;SDS011;48761;42.680;23.312;2023-01-16T00:11:57;57.90;;;32.10;;
62696;SDS011;48761;42.680;23.312;2023-01-16T00:14:23;53.05;;;30.45;;
62696;SDS011;48761;42.680;23.312;2023-01-16T00:16:49;56.17;;;30.05;;
62696;SDS011;48761;42.680;23.312;2023-01-16T00:19:15;51.92;;;28.35;;
62696;SDS011;48761;42.680;23.312;2023-01-16T00:21:41;53.97;;;30.35;;
62696;SDS011;48761;42.680;23.312;2023-01-16T00:24:07;50.60;;;28.42;;
62696;SDS011;48761;42.680;23.312;2023-01-16T00:26:33;49.83;;;28.95;;
62696;SDS011;48761;42.680;23.312;2023-01-16T00:28:59;53.80;;;30.48;;
62696;SDS011;48761;42.680;23.312;2023-01-16T00:31:25;51.53;;;29.45;;
62696;SDS011;48761;42.680;23.312;2023-01-16T00:33:51;52.10;;;29.65;;
62696;SDS011;48761;42.680;23.312;2023-01-16T00:36:17;58.42;;;30.90;;
62696;SDS011;48761;42.680;23.312;2023-01-16T00:38:43;54.78;;;29.40;;
62696;SDS011;48761;42.680;23.312;2023-01-16T00:41:09;56.05;;;30.17;;
62696;SDS011;48761;42.680;23.312;2023-01-16T00:43:34;55.70;;;30.17;;
62696;SDS011;48761;42.680;23.312;2023-01-16T00:46:00;52.05;;;29.63;;
62696;SDS011;48761;42.680;23.312;2023-01-16T00:48:26;55.97;;;30.13;;
62696;SDS011;48761;42.680;23.312;2023-01-16T00:50:52;47.95;;;26.85;;
62696;SDS011;48761;42.680;23.312;2023-01-16T00:53:18;55.72;;;29.98;;
62696;SDS011;48761;42.680;23.312;2023-01-16T00:55:44;52.28;;;27.83;;
62696;SDS011;48761;42.680;23.312;2023-01-16T00:58:10;50.85;;;28.67;;
62696;SDS011;48761;42.680;23.312;2023-01-16T01:00:36;54.72;;;28.38;;
62696;SDS011;48761;42.680;23.312;2023-01-16T01:03:03;49.17;;;27.80;;
62696;SDS011;48761;42.680;23.312;2023-01-16T01:05:30;48.92;;;27.13;;
62696;SDS011;48761;42.680;23.312;2023-01-16T01:07:59;45.38;;;26.45;;
62696;SDS011;48761;42.680;23.312;2023-01-16T01:10:25;51.20;;;27.63;;
62696;SDS011;48761;42.680;23.312;2023-01-16T01:12:54;50.40;;;27.25;;
62696;SDS011;48761;42.680;23.312;2023-01-16T01:15:20;47.80;;;27.45;;
62696;SDS011;48761;42.680;23.312;2023-01-16T01:17:47;51.17;;;27.50;;
62696;SDS011;48761;42.680;23.312;2023-01-16T01:20:13;53.22;;;28.33;;
62696;SDS011;48761;42.680;23.312;2023-01-16T01:22:39;48.40;;;27.30;;
62696;SDS011;48761;42.680;23.312;2023-01-16T01:25:05;49.65;;;27.20;;
62696;SDS011;48761;42.680;23.312;2023-01-16T01:27:31;49.83;;;27.83;;
62696;SDS011;48761;42.680;23.312;2023-01-16T01:29:57;52.85;;;27.73;;
62696;SDS011;48761;42.680;23.312;2023-01-16T01:32:23;47.03;;;27.63;;
62696;SDS011;48761;42.680;23.312;2023-01-16T01:34:48;47.35;;;26.83;;
62696;SDS011;48761;42.680;23.312;2023-01-16T01:37:14;49.72;;;27.58;;
62696;SDS011;48761;42.680;23.312;2023-01-16T01:39:40;55.45;;;27.77;;
62696;SDS011;48761;42.680;23.312;2023-01-16T01:42:09;47.72;;;27.25;;
62696;SDS011;48761;42.680;23.312;2023-01-16T01:47:31;54.42;;;26.33;;
62696;SDS011;48761;42.680;23.312;2023-01-16T01:50:01;49.38;;;27.50;;
62696;SDS011;48761;42.680;23.312;2023-01-16T01:52:29;48.83;;;25.95;;
62696;SDS011;48761;42.680;23.312;2023-01-16T01:55:05;48.45;;;26.63;;
62696;SDS011;48761;42.680;23.312;2023-01-16T01:57:44;52.03;;;26.67;;
62696;SDS011;48761;42.680;23.312;2023-01-16T02:00:19;51.15;;;26.83;;
62696;SDS011;48761;42.680;23.312;2023-01-16T02:02:48;51.40;;;27.58;;
62696;SDS011;48761;42.680;23.312;2023-01-16T02:05:23;61.50;;;29.50;;
62696;SDS011;48761;42.680;23.312;2023-01-16T02:07:53;61.78;;;28.55;;
62696;SDS011;48761;42.680;23.312;2023-01-16T02:10:38;65.97;;;29.92;;
62696;SDS011;48761;42.680;23.312;2023-01-16T02:13:09;67.63;;;30.38;;
62696;SDS011;48761;42.680;23.312;2023-01-16T02:15:35;65.95;;;28.52;;
62696;SDS011;48761;42.680;23.312;2023-01-16T02:18:02;61.08;;;29.52;;
62696;SDS011;48761;42.680;23.312;2023-01-16T02:26:12;63.90;;;29.13;;
62696;SDS011;48761;42.680;23.312;2023-01-16T02:35:17;65.25;;;28.75;;
62696;SDS011;48761;42.680;23.312;2023-01-16T02:38:08;62.92;;;26.98;;
62696;SDS011;48761;42.680;23.312;2023-01-16T02:54:08;66.28;;;27.45;;
62696;SDS011;48761;42.680;23.312;2023-01-16T02:56:59;61.28;;;28.17;;
62696;SDS011;48761;42.680;23.312;2023-01-16T02:59:34;61.50;;;28.35;;
62696;SDS011;48761;42.680;23.312;2023-01-16T03:02:00;61.47;;;29.35;;
62696;SDS011;48761;42.680;23.312;2023-01-16T03:07:09;59.80;;;27.33;;
62696;SDS011;48761;42.680;23.312;2023-01-16T03:15:02;65.18;;;28.70;;
62696;SDS011;48761;42.680;23.312;2023-01-16T03:20:25;64.30;;;28.23;;
62696;SDS011;48761;42.680;23.312;2023-01-16T03:26:00;68.50;;;30.50;;
62696;SDS011;48761;42.680;23.312;2023-01-16T03:31:37;63.75;;;27.52;;
62696;SDS011;48761;42.680;23.312;2023-01-16T03:36:57;60.90;;;29.33;;
62696;SDS011;48761;42.680;23.312;2023-01-16T03:39:32;64.57;;;30.40;;
62696;SDS011;48761;42.680;23.312;2023-01-16T03:42:09;73.80;;;31.40;;
62696;SDS011;48761;42.680;23.312;2023-01-16T03:44:40;72.43;;;31.55;;
62696;SDS011;48761;42.680;23.312;2023-01-16T03:47:14;77.15;;;32.60;;
62696;SDS011;48761;42.680;23.312;2023-01-16T03:49:47;73.30;;;31.67;;
62696;SDS011;48761;42.680;23.312;2023-01-16T03:52:17;74.68;;;31.05;;
62696;SDS011;48761;42.680;23.312;2023-01-16T03:54:53;83.10;;;33.55;;
62696;SDS011;48761;42.680;23.312;2023-01-16T03:57:36;74.72;;;31.88;;
62696;SDS011;48761;42.680;23.312;2023-01-16T04:00:09;73.90;;;30.83;;
62696;SDS011;48761;42.680;23.312;2023-01-16T04:05:08;75.88;;;32.17;;
62696;SDS011;48761;42.680;23.312;2023-01-16T04:08:05;75.88;;;32.03;;
62696;SDS011;48761;42.680;23.312;2023-01-16T04:10:35;82.30;;;34.17;;
62696;SDS011;48761;42.680;23.312;2023-01-16T04:13:07;68.07;;;31.73;;
62696;SDS011;48761;42.680;23.312;2023-01-16T04:15:37;76.78;;;33.08;;
62696;SDS011;48761;42.680;23.312;2023-01-16T04:18:06;75.57;;;32.70;;
62696;SDS011;48761;42.680;23.312;2023-01-16T04:20:32;84.63;;;33.38;;
62696;SDS011;48761;42.680;23.312;2023-01-16T04:23:01;76.30;;;32.38;;
62696;SDS011;48761;42.680;23.312;2023-01-16T04:25:26;70.97;;;30.98;;
62696;SDS011;48761;42.680;23.312;2023-01-16T04:27:52;74.30;;;31.15;;
62696;SDS011;48761;42.680;23.312;2023-01-16T04:30:18;72.20;;;30.42;;
62696;SDS011;48761;42.680;23.312;2023-01-16T04:32:44;70.38;;;32.00;;
62696;SDS011;48761;42.680;23.312;2023-01-16T04:35:10;71.05;;;30.48;;
62696;SDS011;48761;42.680;23.312;2023-01-16T04:37:36;69.93;;;31.58;;
62696;SDS011;48761;42.680;23.312;2023-01-16T04:40:02;64.97;;;30.00;;
62696;SDS011;48761;42.680;23.312;2023-01-16T04:42:29;69.00;;;31.23;;
62696;SDS011;48761;42.680;23.312;2023-01-16T04:44:55;67.13;;;30.15;;
62696;SDS011;48761;42.680;23.312;2023-01-16T04:47:20;70.10;;;30.92;;
62696;SDS011;48761;42.680;23.312;2023-01-16T04:49:46;69.60;;;32.22;;
62696;SDS011;48761;42.680;23.312;2023-01-16T04:52:12;75.93;;;34.13;;
62696;SDS011;48761;42.680;23.312;2023-01-16T04:54:39;69.55;;;32.03;;
62696;SDS011;48761;42.680;23.312;2023-01-16T04:57:05;68.22;;;31.33;;
62696;SDS011;48761;42.680;23.312;2023-01-16T04:59:31;70.00;;;30.80;;
62696;SDS011;48761;42.680;23.312;2023-01-16T05:01:57;69.25;;;30.75;;
62696;SDS011;48761;42.680;23.312;2023-01-16T05:04:22;65.00;;;30.15;;
62696;SDS011;48761;42.680;23.312;2023-01-16T05:06:48;68.93;;;30.88;;
62696;SDS011;48761;42.680;23.312;2023-01-16T05:09:14;71.53;;;32.08;;
62696;SDS011;48761;42.680;23.312;2023-01-16T05:11:40;72.50;;;30.88;;
62696;SDS011;48761;42.680;23.312;2023-01-16T05:14:06;72.20;;;31.50;;
62696;SDS011;48761;42.680;23.312;2023-01-16T05:16:42;76.72;;;31.33;;
62696;SDS011;48761;42.680;23.312;2023-01-16T05:19:08;70.55;;;31.90;;
62696;SDS011;48761;42.680;23.312;2023-01-16T05:21:34;72.15;;;32.90;;
62696;SDS011;48761;42.680;23.312;2023-01-16T05:24:00;70.22;;;30.25;;
62696;SDS011;48761;42.680;23.312;2023-01-16T05:26:26;77.28;;;33.20;;
62696;SDS011;48761;42.680;23.312;2023-01-16T05:28:52;68.43;;;31.60;;
62696;SDS011;48761;42.680;23.312;2023-01-16T05:31:18;76.40;;;31.55;;
62696;SDS011;48761;42.680;23.312;2023-01-16T05:33:44;78.38;;;33.03;;
62696;SDS011;48761;42.680;23.312;2023-01-16T05:36:10;73.28;;;31.77;;
62696;SDS011;48761;42.680;23.312;2023-01-16T05:38:36;75.38;;;33.60;;
62696;SDS011;48761;42.680;23.312;2023-01-16T05:41:02;71.50;;;31.80;;
62696;SDS011;48761;42.680;23.312;2023-01-16T05:43:28;82.50;;;34.67;;
62696;SDS011;48761;42.680;23.312;2023-01-16T05:45:55;71.50;;;31.58;;
62696;SDS011;48761;42.680;23.312;2023-01-16T05:48:21;70.47;;;31.02;;
62696;SDS011;48761;42.680;23.312;2023-01-16T05:50:46;66.00;;;30.63;;
62696;SDS011;48761;42.680;23.312;2023-01-16T05:53:12;68.32;;;31.17;;
62696;SDS011;48761;42.680;23.312;2023-01-16T05:55:42;74.82;;;32.20;;
62696;SDS011;48761;42.680;23.312;2023-01-16T05:58:11;68.45;;;30.75;;
62696;SDS011;48761;42.680;23.312;2023-01-16T06:00:38;74.47;;;32.38;;
62696;SDS011;48761;42.680;23.312;2023-01-16T06:03:04;78.55;;;32.72;;
62696;SDS011;48761;42.680;23.312;2023-01-16T06:05:31;69.20;;;31.73;;
62696;SDS011;48761;42.680;23.312;2023-01-16T06:07:57;68.72;;;32.78;;
62696;SDS011;48761;42.680;23.312;2023-01-16T06:10:23;65.00;;;31.10;;
62696;SDS011;48761;42.680;23.312;2023-01-16T06:12:49;64.43;;;31.02;;
62696;SDS011;48761;42.680;23.312;2023-01-16T06:15:15;71.07;;;32.03;;
62696;SDS011;48761;42.680;23.312;2023-01-16T06:17:41;61.70;;;30.40;;
62696;SDS011;48761;42.680;23.312;2023-01-16T06:20:08;64.38;;;30.30;;
62696;SDS011;48761;42.680;23.312;2023-01-16T06:22:34;62.05;;;29.80;;
62696;SDS011;48761;42.680;23.312;2023-01-16T06:25:00;68.25;;;31.10;;
62696;SDS011;48761;42.680;23.312;2023-01-16T06:27:26;72.35;;;31.23;;
62696;SDS011;48761;42.680;23.312;2023-01-16T06:29:52;65.30;;;30.85;;
62696;SDS011;48761;42.680;23.312;2023-01-16T06:32:18;69.20;;;31.20;;
62696;SDS011;48761;42.680;23.312;2023-01-16T06:34:44;71.13;;;33.65;;
62696;SDS011;48761;42.680;23.312;2023-01-16T06:37:11;71.60;;;31.23;;
62696;SDS011;48761;42.680;23.312;2023-01-16T06:39:37;72.55;;;33.83;;
62696;SDS011;48761;42.680;23.312;2023-01-16T06:42:03;71.15;;;32.13;;
62696;SDS011;48761;42.680;23.312;2023-01-16T06:44:29;65.95;;;31.55;;
62696;SDS011;48761;42.680;23.312;2023-01-16T06:46:55;72.32;;;32.65;;
62696;SDS011;48761;42.680;23.312;2023-01-16T06:49:21;74.88;;;33.55;;
62696;SDS011;48761;42.680;23.312;2023-01-16T06:51:47;75.78;;;34.25;;
62696;SDS011;48761;42.680;23.312;2023-01-16T06:54:12;72.95;;;34.15;;
62696;SDS011;48761;42.680;23.312;2023-01-16T06:56:38;73.85;;;33.72;;
62696;SDS011;48761;42.680;23.312;2023-01-16T06:59:04;78.07;;;35.97;;
62696;SDS011;48761;42.680;23.312;2023-01-16T07:01:30;72.75;;;33.53;;
62696;SDS011;48761;42.680;23.312;2023-01-16T07:03:56;79.30;;;36.35;;
62696;SDS011;48761;42.680;23.312;2023-01-16T07:06:22;80.00;;;36.53;;
62696;SDS011;48761;42.680;23.312;2023-01-16T07:08:48;79.80;;;37.42;;
62696;SDS011;48761;42.680;23.312;2023-01-16T07:11:14;74.88;;;35.50;;
62696;SDS011;48761;42.680;23.312;2023-01-16T07:13:40;78.88;;;35.45;;
62696;SDS011;48761;42.680;23.312;2023-01-16T07:16:06;74.75;;;35.35;;
62696;SDS011;48761;42.680;23.312;2023-01-16T07:18:32;73.63;;;34.15;;
62696;SDS011;48761;42.680;23.312;2023-01-16T07:20:58;83.57;;;36.83;;
62696;SDS011;48761;42.680;23.312;2023-01-16T07:23:27;78.05;;;35.38;;
62696;SDS011;48761;42.680;23.312;2023-01-16T07:25:57;83.95;;;36.10;;
62696;SDS011;48761;42.680;23.312;2023-01-16T07:28:26;77.00;;;34.63;;
62696;SDS011;48761;42.680;23.312;2023-01-16T07:30:52;82.10;;;37.70;;
62696;SDS011;48761;42.680;23.312;2023-01-16T07:33:18;75.53;;;33.75;;
62696;SDS011;48761;42.680;23.312;2023-01-16T07:35:44;72.13;;;33.80;;
62696;SDS011;48761;42.680;23.312;2023-01-16T07:38:10;71.72;;;34.70;;
62696;SDS011;48761;42.680;23.312;2023-01-16T07:40:36;70.55;;;33.85;;
62696;SDS011;48761;42.680;23.312;2023-01-16T07:43:02;66.57;;;32.85;;
62696;SDS011;48761;42.680;23.312;2023-01-16T07:45:28;75.35;;;33.72;;
62696;SDS011;48761;42.680;23.312;2023-01-16T07:47:54;72.80;;;33.17;;
62696;SDS011;48761;42.680;23.312;2023-01-16T07:50:20;66.90;;;33.88;;
62696;SDS011;48761;42.680;23.312;2023-01-16T07:52:46;73.22;;;33.63;;
62696;SDS011;48761;42.680;23.312;2023-01-16T07:55:12;73.75;;;34.58;;
62696;SDS011;48761;42.680;23.312;2023-01-16T07:57:38;80.45;;;37.33;;
62696;SDS011;48761;42.680;23.312;2023-01-16T08:00:05;88.68;;;39.47;;
62696;SDS011;48761;42.680;23.312;2023-01-16T08:02:33;84.88;;;38.50;;
62696;SDS011;48761;42.680;23.312;2023-01-16T08:04:59;82.28;;;38.95;;
62696;SDS011;48761;42.680;23.312;2023-01-16T08:07:25;86.63;;;38.47;;
62696;SDS011;48761;42.680;23.312;2023-01-16T08:09:51;86.68;;;39.10;;
62696;SDS011;48761;42.680;23.312;2023-01-16T08:12:17;79.05;;;36.53;;
62696;SDS011;48761;42.680;23.312;2023-01-16T08:14:43;75.80;;;36.85;;
62696;SDS011;48761;42.680;23.312;2023-01-16T08:17:09;75.65;;;35.75;;
62696;SDS011;48761;42.680;23.312;2023-01-16T08:19:34;77.45;;;36.00;;
62696;SDS011;48761;42.680;23.312;2023-01-16T08:22:00;80.50;;;35.63;;
62696;SDS011;48761;42.680;23.312;2023-01-16T08:24:26;76.20;;;36.05;;
62696;SDS011;48761;42.680;23.312;2023-01-16T08:26:52;74.28;;;36.72;;
62696;SDS011;48761;42.680;23.312;2023-01-16T08:29:18;63.13;;;33.85;;
62696;SDS011;48761;42.680;23.312;2023-01-16T08:31:44;71.90;;;36.60;;
62696;SDS011;48761;42.680;23.312;2023-01-16T08:34:10;73.85;;;35.67;;
62696;SDS011;48761;42.680;23.312;2023-01-16T08:36:36;74.88;;;35.45;;
62696;SDS011;48761;42.680;23.312;2023-01-16T08:39:02;77.20;;;37.22;;
62696;SDS011;48761;42.680;23.312;2023-01-16T08:41:28;76.55;;;38.22;;
62696;SDS011;48761;42.680;23.312;2023-01-16T08:43:54;86.97;;;39.25;;
62696;SDS011;48761;42.680;23.312;2023-01-16T08:46:20;79.35;;;36.95;;
62696;SDS011;48761;42.680;23.312;2023-01-16T08:48:48;71.90;;;36.97;;
62696;SDS011;48761;42.680;23.312;2023-01-16T08:51:17;71.18;;;37.75;;
62696;SDS011;48761;42.680;23.312;2023-01-16T08:53:44;79.75;;;37.95;;
62696;SDS011;48761;42.680;23.312;2023-01-16T08:56:10;75.63;;;36.60;;
62696;SDS011;48761;42.680;23.312;2023-01-16T08:58:36;78.28;;;37.97;;
62696;SDS011;48761;42.680;23.312;2023-01-16T09:01:02;75.38;;;35.10;;
62696;SDS011;48761;42.680;23.312;2023-01-16T09:03:28;75.25;;;35.80;;
62696;SDS011;48761;42.680;23.312;2023-01-16T09:05:54;74.03;;;35.42;;
62696;SDS011;48761;42.680;23.312;2023-01-16T09:08:19;70.43;;;34.88;;
62696;SDS011;48761;42.680;23.312;2023-01-16T09:10:45;70.13;;;34.58;;
62696;SDS011;48761;42.680;23.312;2023-01-16T09:13:11;73.35;;;34.92;;
62696;SDS011;48761;42.680;23.312;2023-01-16T09:15:37;68.70;;;34.53;;
62696;SDS011;48761;42.680;23.312;2023-01-16T09:18:03;67.05;;;32.25;;
62696;SDS011;48761;42.680;23.312;2023-01-16T09:20:29;69.70;;;32.67;;
62696;SDS011;48761;42.680;23.312;2023-01-16T09:22:58;53.80;;;28.80;;
62696;SDS011;48761;42.680;23.312;2023-01-16T09:25:25;57.10;;;29.75;;
62696;SDS011;48761;42.680;23.312;2023-01-16T09:27:51;55.45;;;29.00;;
62696;SDS011;48761;42.680;23.312;2023-01-16T09:30:17;52.63;;;28.27;;
62696;SDS011;48761;42.680;23.312;2023-01-16T09:32:44;56.38;;;27.88;;
62696;SDS011;48761;42.680;23.312;2023-01-16T09:35:11;51.28;;;27.33;;
62696;SDS011;48761;42.680;23.312;2023-01-16T09:37:37;52.65;;;26.17;;
62696;SDS011;48761;42.680;23.312;2023-01-16T09:40:03;51.72;;;26.50;;
62696;SDS011;48761;42.680;23.312;2023-01-16T09:42:32;42.20;;;22.00;;
62696;SDS011;48761;42.680;23.312;2023-01-16T09:45:15;44.03;;;21.80;;
62696;SDS011;48761;42.680;23.312;2023-01-16T09:47:45;37.97;;;22.55;;
62696;SDS011;48761;42.680;23.312;2023-01-16T09:53:26;43.47;;;22.80;;
62696;SDS011;48761;42.680;23.312;2023-01-16T09:56:07;44.33;;;22.75;;
62696;SDS011;48761;42.680;23.312;2023-01-16T09:58:36;37.38;;;22.10;;
62696;SDS011;48761;42.680;23.312;2023-01-16T10:01:14;47.67;;;24.57;;
62696;SDS011;48761;42.680;23.312;2023-01-16T10:03:44;47.88;;;25.05;;
62696;SDS011;48761;42.680;23.312;2023-01-16T10:11:55;36.00;;;18.40;;
62696;SDS011;48761;42.680;23.312;2023-01-16T10:14:39;48.65;;;23.38;;
62696;SDS011;48761;42.680;23.312;2023-01-16T10:25:53;46.08;;;25.45;;
62696;SDS011;48761;42.680;23.312;2023-01-16T10:28:57;54.17;;;27.83;;
62696;SDS011;48761;42.680;23.312;2023-01-16T10:37:27;56.05;;;27.35;;
62696;SDS011;48761;42.680;23.312;2023-01-16T10:39:54;48.45;;;26.98;;
62696;SDS011;48761;42.680;23.312;2023-01-16T10:42:25;52.35;;;28.15;;
62696;SDS011;48761;42.680;23.312;2023-01-16T10:45:00;60.50;;;29.13;;
62696;SDS011;48761;42.680;23.312;2023-01-16T10:47:35;48.72;;;26.83;;
62696;SDS011;48761;42.680;23.312;2023-01-16T10:50:01;48.60;;;27.13;;
62696;SDS011;48761;42.680;23.312;2023-01-16T10:52:27;49.63;;;26.10;;
62696;SDS011;48761;42.680;23.312;2023-01-16T10:54:53;46.67;;;25.98;;
62696;SDS011;48761;42.680;23.312;2023-01-16T10:57:22;52.58;;;27.83;;
62696;SDS011;48761;42.680;23.312;2023-01-16T10:59:49;51.90;;;28.35;;
62696;SDS011;48761;42.680;23.312;2023-01-16T11:02:18;48.15;;;27.95;;
62696;SDS011;48761;42.680;23.312;2023-01-16T11:04:50;61.97;;;30.15;;
62696;SDS011;48761;42.680;23.312;2023-01-16T11:07:18;56.75;;;31.20;;
62696;SDS011;48761;42.680;23.312;2023-01-16T11:09:45;58.80;;;31.13;;
62696;SDS011;48761;42.680;23.312;2023-01-16T11:12:17;60.47;;;31.55;;
62696;SDS011;48761;42.680;23.312;2023-01-16T11:14:49;67.18;;;33.13;;
62696;SDS011;48761;42.680;23.312;2023-01-16T11:17:31;58.53;;;30.95;;
62696;SDS011;48761;42.680;23.312;2023-01-16T11:19:59;55.67;;;28.45;;
62696;SDS011;48761;42.680;23.312;2023-01-16T11:22:27;56.50;;;29.48;;
62696;SDS011;48761;42.680;23.312;2023-01-16T11:24:56;50.97;;;28.90;;
62696;SDS011;48761;42.680;23.312;2023-01-16T11:27:22;54.00;;;29.33;;
62696;SDS011;48761;42.680;23.312;2023-01-16T11:29:54;49.60;;;27.90;;
62696;SDS011;48761;42.680;23.312;2023-01-16T11:32:21;48.17;;;26.90;;
62696;SDS011;48761;42.680;23.312;2023-01-16T11:34:47;50.00;;;27.83;;
62696;SDS011;48761;42.680;23.312;2023-01-16T11:37:15;52.55;;;27.85;;
62696;SDS011;48761;42.680;23.312;2023-01-16T11:39:42;44.72;;;25.50;;
62696;SDS011;48761;42.680;23.312;2023-01-16T11:42:14;45.17;;;24.02;;
62696;SDS011;48761;42.680;23.312;2023-01-16T11:44:40;44.67;;;25.33;;
62696;SDS011;48761;42.680;23.312;2023-01-16T11:47:09;42.50;;;25.05;;
62696;SDS011;48761;42.680;23.312;2023-01-16T11:49:47;48.78;;;24.90;;
62696;SDS011;48761;42.680;23.312;2023-01-16T11:52:22;46.03;;;25.33;;
62696;SDS011;48761;42.680;23.312;2023-01-16T11:54:50;45.53;;;24.50;;
62696;SDS011;48761;42.680;23.312;2023-01-16T12:10:45;43.65;;;23.30;;
62696;SDS011;48761;42.680;23.312;2023-01-16T12:13:13;43.03;;;23.90;;
62696;SDS011;48761;42.680;23.312;2023-01-16T12:15:49;41.70;;;23.55;;
62696;SDS011;48761;42.680;23.312;2023-01-16T12:21:31;41.47;;;21.52;;
62696;SDS011;48761;42.680;23.312;2023-01-16T12:24:24;36.28;;;20.73;;
62696;SDS011;48761;42.680;23.312;2023-01-16T12:29:47;40.92;;;22.00;;
62696;SDS011;48761;42.680;23.312;2023-01-16T12:37:37;45.55;;;23.38;;
62696;SDS011;48761;42.680;23.312;2023-01-16T12:40:28;35.45;;;18.15;;
62696;SDS011;48761;42.680;23.312;2023-01-16T12:48:43;39.78;;;21.30;;
62696;SDS011;48761;42.680;23.312;2023-01-16T12:57:15;41.07;;;22.50;;
62696;SDS011;48761;42.680;23.312;2023-01-16T13:00:14;37.15;;;19.23;;
62696;SDS011;48761;42.680;23.312;2023-01-16T13:05:33;37.92;;;19.70;;
62696;SDS011;48761;42.680;23.312;2023-01-16T13:10:33;30.98;;;19.55;;
62696;SDS011;48761;42.680;23.312;2023-01-16T13:13:02;34.97;;;19.73;;
62696;SDS011;48761;42.680;23.312;2023-01-16T13:15:36;37.90;;;20.70;;
62696;SDS011;48761;42.680;23.312;2023-01-16T13:18:18;34.40;;;18.05;;
62696;SDS011;48761;42.680;23.312;2023-01-16T13:20:57;31.42;;;19.00;;
62696;SDS011;48761;42.680;23.312;2023-01-16T13:23:30;33.45;;;18.98;;
62696;SDS011;48761;42.680;23.312;2023-01-16T13:26:17;35.95;;;19.45;;
62696;SDS011;48761;42.680;23.312;2023-01-16T13:33:49;35.80;;;17.98;;
62696;SDS011;48761;42.680;23.312;2023-01-16T13:42:21;33.17;;;17.55;;
62696;SDS011;48761;42.680;23.312;2023-01-16T13:44:49;31.08;;;17.10;;
62696;SDS011;48761;42.680;23.312;2023-01-16T13:47:21;31.73;;;17.70;;
62696;SDS011;48761;42.680;23.312;2023-01-16T13:49:52;30.17;;;16.58;;
62696;SDS011;48761;42.680;23.312;2023-01-16T13:52:24;30.67;;;17.33;;
62696;SDS011;48761;42.680;23.312;2023-01-16T13:54:56;27.90;;;13.40;;
62696;SDS011;48761;42.680;23.312;2023-01-16T13:57:24;31.08;;;17.48;;
62696;SDS011;48761;42.680;23.312;2023-01-16T14:05:44;31.63;;;18.17;;
62696;SDS011;48761;42.680;23.312;2023-01-16T14:15:54;31.67;;;18.35;;
62696;SDS011;48761;42.680;23.312;2023-01-16T14:21:17;36.47;;;19.80;;
62696;SDS011;48761;42.680;23.312;2023-01-16T14:23:47;40.80;;;22.00;;
62696;SDS011;48761;42.680;23.312;2023-01-16T14:26:17;43.55;;;21.73;;
62696;SDS011;48761;42.680;23.312;2023-01-16T14:28:46;40.22;;;20.67;;
62696;SDS011;48761;42.680;23.312;2023-01-16T14:31:21;42.50;;;22.10;;
62696;SDS011;48761;42.680;23.312;2023-01-16T14:33:53;33.00;;;18.05;;
62696;SDS011;48761;42.680;23.312;2023-01-16T14:36:21;30.45;;;18.13;;
62696;SDS011;48761;42.680;23.312;2023-01-16T14:38:50;35.17;;;18.40;;
62696;SDS011;48761;42.680;23.312;2023-01-16T14:41:17;34.30;;;19.15;;
62696;SDS011;48761;42.680;23.312;2023-01-16T14:44:07;35.80;;;19.42;;
62696;SDS011;48761;42.680;23.312;2023-01-16T14:46:49;34.97;;;20.20;;
62696;SDS011;48761;42.680;23.312;2023-01-16T14:52:16;32.53;;;18.85;;
62696;SDS011;48761;42.680;23.312;2023-01-16T14:54:42;37.83;;;20.30;;
62696;SDS011;48761;42.680;23.312;2023-01-16T14:57:12;37.50;;;20.95;;
62696;SDS011;48761;42.680;23.312;2023-01-16T15:02:49;36.83;;;20.52;;
62696;SDS011;48761;42.680;23.312;2023-01-16T15:05:22;42.80;;;20.85;;
62696;SDS011;48761;42.680;23.312;2023-01-16T15:07:55;39.75;;;20.85;;
62696;SDS011;48761;42.680;23.312;2023-01-16T15:12:53;43.10;;;23.15;;
62696;SDS011;48761;42.680;23.312;2023-01-16T15:15:38;41.78;;;22.40;;
62696;SDS011;48761;42.680;23.312;2023-01-16T15:18:08;40.20;;;23.35;;
62696;SDS011;48761;42.680;23.312;2023-01-16T15:20:41;41.63;;;22.38;;
62696;SDS011;48761;42.680;23.312;2023-01-16T15:23:16;42.15;;;23.90;;
62696;SDS011;48761;42.680;23.312;2023-01-16T15:33:43;45.35;;;22.95;;
62696;SDS011;48761;42.680;23.312;2023-01-16T15:39:25;45.60;;;23.73;;
62696;SDS011;48761;42.680;23.312;2023-01-16T15:44:27;50.85;;;26.23;;
62696;SDS011;48761;42.680;23.312;2023-01-16T15:46:59;47.20;;;24.48;;
62696;SDS011;48761;42.680;23.312;2023-01-16T15:52:28;45.25;;;24.58;;
62696;SDS011;48761;42.680;23.312;2023-01-16T15:54:56;43.33;;;23.60;;
62696;SDS011;48761;42.680;23.312;2023-01-16T15:57:22;47.53;;;23.55;;
62696;SDS011;48761;42.680;23.312;2023-01-16T15:59:52;40.60;;;24.15;;
62696;SDS011;48761;42.680;23.312;2023-01-16T16:02:24;44.03;;;24.50;;
62696;SDS011;48761;42.680;23.312;2023-01-16T16:04:52;45.53;;;25.97;;
62696;SDS011;48761;42.680;23.312;2023-01-16T16:07:21;50.45;;;26.60;;
62696;SDS011;48761;42.680;23.312;2023-01-16T16:09:48;49.42;;;25.25;;
62696;SDS011;48761;42.680;23.312;2023-01-16T16:12:18;44.30;;;25.00;;
62696;SDS011;48761;42.680;23.312;2023-01-16T16:14:45;43.75;;;23.17;;
62696;SDS011;48761;42.680;23.312;2023-01-16T16:17:19;44.17;;;23.98;;
62696;SDS011;48761;42.680;23.312;2023-01-16T16:19:47;45.15;;;24.02;;
62696;SDS011;48761;42.680;23.312;2023-01-16T16:22:15;43.85;;;23.42;;
62696;SDS011;48761;42.680;23.312;2023-01-16T16:24:46;44.72;;;22.45;;
62696;SDS011;48761;42.680;23.312;2023-01-16T16:27:12;46.42;;;24.95;;
62696;SDS011;48761;42.680;23.312;2023-01-16T16:29:41;48.45;;;25.40;;
62696;SDS011;48761;42.680;23.312;2023-01-16T16:32:15;43.10;;;24.20;;
62696;SDS011;48761;42.680;23.312;2023-01-16T16:34:49;44.70;;;23.95;;
62696;SDS011;48761;42.680;23.312;2023-01-16T16:37:21;48.17;;;24.77;;
62696;SDS011;48761;42.680;23.312;2023-01-16T16:39:57;42.78;;;24.73;;
62696;SDS011;48761;42.680;23.312;2023-01-16T16:47:35;50.47;;;23.25;;
62696;SDS011;48761;42.680;23.312;2023-01-16T16:50:46;40.80;;;22.92;;
62696;SDS011;48761;42.680;23.312;2023-01-16T16:53:05;40.05;;;22.80;;
62696;SDS011;48761;42.680;23.312;2023-01-16T16:55:43;42.38;;;22.70;;
62696;SDS011;48761;42.680;23.312;2023-01-16T16:58:19;42.20;;;23.55;;
62696;SDS011;48761;42.680;23.312;2023-01-16T17:00:47;43.17;;;22.65;;
62696;SDS011;48761;42.680;23.312;2023-01-16T17:03:15;38.38;;;21.88;;
62696;SDS011;48761;42.680;23.312;2023-01-16T17:05:44;38.63;;;22.02;;
62696;SDS011;48761;42.680;23.312;2023-01-16T17:08:32;43.72;;;22.85;;
62696;SDS011;48761;42.680;23.312;2023-01-16T17:10:57;37.22;;;20.85;;
62696;SDS011;48761;42.680;23.312;2023-01-16T17:13:24;34.20;;;20.30;;
62696;SDS011;48761;42.680;23.312;2023-01-16T17:15:52;34.90;;;19.92;;